Maratha — SWJF — position and weather

sailwx.info

Track history (hours):
 
Tides and Currents Weather Stations Pressure Air Temp Water Temp Dewpoint Dewpoint Depression Visibility Wind Speed Wind Dir Waves Ship Positions

Maratha

Last reported at 2017-Sep-13 05:05 UTC. Time now 2017-Sep-19 11:49 UTC.
Position N 32°52' E 034°58'.

Length 244 m; draft 12.8 m.

Type: Ship. MMSI: 240042000.

Date/timePositionNaut miles runAvg speedWind from/ knotsBaromVisibWave heightAir tempDewpointWater temp
2017-Sep-13 05:05N 32°52' E 034°58'0 5.4
2017-Sep-13 05:00N 32°52' E 034°57'0 0.6
2017-Sep-13 04:15N 32°52' E 034°57'0 1.8
2017-Sep-13 04:00N 32°53' E 034°56'3 5.1
2017-Sep-13 03:30N 32°53' E 034°54'4 8.5
2017-Sep-13 03:00N 32°55' E 034°49'5 9.2
2017-Sep-13 02:30N 32°55' E 034°43'5 9.1
2017-Sep-13 02:00N 32°56' E 034°38'5 9.0
2017-Sep-13 01:30N 32°57' E 034°33'4 9.0
2017-Sep-13 01:00N 32°58' E 034°27'4 8.8
2017-Sep-13 00:30N 32°58' E 034°22'4 9.0
2017-Sep-13 00:00N 32°59' E 034°17'5 9.2
2017-Sep-12 23:30N 33°00' E 034°11'5 9.3
2017-Sep-12 23:00N 33°01' E 034°06'5 9.3
2017-Sep-12 22:30N 33°02' E 034°01'5 9.3
2017-Sep-12 22:00N 33°02' E 033°55'5 9.2
2017-Sep-12 21:30N 33°03' E 033°50'5 9.1
2017-Sep-12 21:00N 33°04' E 033°44'5 9.2
2017-Sep-12 20:30N 33°05' E 033°39'5 9.2
2017-Sep-12 20:00N 33°05' E 033°33'5 9.2
2017-Sep-12 19:30N 33°06' E 033°28'5 9.1
2017-Sep-12 19:00N 33°07' E 033°23'5 9.0
2017-Sep-12 18:30N 33°08' E 033°17'5 9.5
2017-Sep-12 18:00N 33°08' E 033°12'510.1
2017-Sep-12 17:30N 33°09' E 033°06'611.2
2017-Sep-12 17:00N 33°10' E 032°59'611.1
2017-Sep-12 16:30N 33°12' E 032°53'5 8.3
2017-Sep-12 15:56N 33°16' E 032°52'511.8
2017-Sep-12 15:30N 33°21' E 032°55'612.0
2017-Sep-12 15:00N 33°27' E 032°58'612.0
2017-Sep-12 14:30N 33°32' E 033°01'612.0
2017-Sep-12 14:00N 33°37' E 033°03'611.8
2017-Sep-12 13:30N 33°43' E 033°06'611.7
2017-Sep-12 13:00N 33°48' E 033°09'611.7
2017-Sep-12 12:30N 33°53' E 033°12'611.6
2017-Sep-12 12:00N 33°58' E 033°16'611.5
2017-Sep-12 11:30N 34°04' E 033°18'611.0
2017-Sep-12 11:00N 34°08' E 033°22'611.2
2017-Sep-12 10:30N 34°12' E 033°27'611.3
2017-Sep-12 10:00N 34°16' E 033°32'611.5
2017-Sep-12 09:30N 34°20' E 033°37'611.2
2017-Sep-12 09:00N 34°23' E 033°43'611.5
2017-Sep-12 08:30N 34°27' E 033°48'611.5
2017-Sep-12 08:00N 34°31' E 033°53'611.5
2017-Sep-12 07:31N 34°35' E 033°58'611.5
2017-Sep-12 07:01N 34°39' E 034°04'611.4
2017-Sep-12 06:30N 34°42' E 034°09'611.2
2017-Sep-12 06:01N 34°46' E 034°14'611.0
2017-Sep-12 05:31N 34°50' E 034°19'611.0
2017-Sep-12 04:55N 34°54' E 034°25'510.7
2017-Sep-12 04:26N 34°57' E 034°30'1211.0
2017-Sep-12 03:20N 35°09' E 034°35'411.3
2017-Sep-12 03:00N 35°13' E 034°36'1611.6
2017-Sep-12 01:39N 35°27' E 034°42'2611.4
2017-Sep-11 23:22N 35°52' E 034°53'78 3.0
2017-Sep-10 21:10N 36°51' E 035°56'145 9.0
2017-Sep-10 05:05N 35°50' E 033°13'111.0
2017-Sep-10 05:00N 35°50' E 033°12'611.0
2017-Sep-10 04:30N 35°49' E 033°05'611.0
2017-Sep-10 03:59N 35°48' E 032°58'511.2
2017-Sep-10 03:30N 35°46' E 032°52'611.0
2017-Sep-10 03:00N 35°46' E 032°45'511.0
2017-Sep-10 02:30N 35°46' E 032°38'510.8
2017-Sep-10 02:00N 35°46' E 032°31'510.8
2017-Sep-10 01:30N 35°46' E 032°25'611.1
2017-Sep-10 01:00N 35°46' E 032°18'611.3
2017-Sep-10 00:30N 35°46' E 032°11'611.5
2017-Sep-10 00:00N 35°46' E 032°04'611.5
2017-Sep-09 23:30N 35°46' E 031°57'611.3
2017-Sep-09 23:00N 35°46' E 031°50'611.1
2017-Sep-09 22:30N 35°46' E 031°43'611.0
2017-Sep-09 22:00N 35°46' E 031°36'510.9
2017-Sep-09 21:30N 35°46' E 031°29'510.6
2017-Sep-09 21:00N 35°46' E 031°23'510.4
2017-Sep-09 20:30N 35°46' E 031°16'510.6
2017-Sep-09 20:00N 35°46' E 031°10'510.8
2017-Sep-09 19:30N 35°46' E 031°03'611.1
2017-Sep-09 19:00N 35°46' E 030°56'611.2
2017-Sep-09 18:30N 35°46' E 030°50'611.5
2017-Sep-09 18:00N 35°46' E 030°43'611.5
2017-Sep-09 17:30N 35°46' E 030°35'611.3
2017-Sep-09 17:00N 35°46' E 030°28'611.3
2017-Sep-09 16:29N 35°46' E 030°21'1911.8
2017-Sep-09 14:51N 35°46' E 029°57'22811.7
2017-Sep-08 19:28N 36°09' E 025°18'4012.5
2017-Sep-08 16:18N 36°15' E 024°29'612.5
2017-Sep-08 15:48N 36°16' E 024°21'512.4
2017-Sep-08 15:25N 36°16' E 024°16'512.5
2017-Sep-08 15:01N 36°17' E 024°09'612.4
2017-Sep-08 14:30N 36°18' E 024°02'612.3
2017-Sep-08 14:00N 36°19' E 023°54'612.4
2017-Sep-08 13:30N 36°20' E 023°46'612.2
2017-Sep-08 13:01N 36°21' E 023°39'712.4
2017-Sep-08 12:26N 36°22' E 023°30'912.7
2017-Sep-08 11:43N 36°23' E 023°19'313.1
2017-Sep-08 11:29N 36°23' E 023°15'613.0
2017-Sep-08 11:00N 36°24' E 023°08'  
2017-Sep-05 13:49N 36°26' E 015°11'711.2
2017-Sep-05 13:12N 36°26' E 015°03'211.4
2017-Sep-05 13:00N 36°26' E 014°60'612.1
2017-Sep-05 12:30N 36°26' E 014°52'612.2
2017-Sep-05 12:00N 36°26' E 014°45'611.9
2017-Sep-05 11:30N 36°26' E 014°38'611.9
2017-Sep-05 11:00N 36°27' E 014°30'611.9
2017-Sep-05 10:30N 36°29' E 014°23'611.6
2017-Sep-05 10:00N 36°31' E 014°16'611.7
2017-Sep-05 09:30N 36°32' E 014°09'611.7
2017-Sep-05 09:00N 36°34' E 014°02'611.7
2017-Sep-05 08:30N 36°35' E 013°55'611.7
2017-Sep-05 08:00N 36°37' E 013°48'611.7
2017-Sep-05 07:28N 36°38' E 013°41'611.6
2017-Sep-05 07:00N 36°40' E 013°34'611.5
2017-Sep-05 06:29N 36°41' E 013°27'611.3
2017-Sep-05 05:56N 36°43' E 013°19'511.1
2017-Sep-05 05:30N 36°44' E 013°14'510.9
2017-Sep-05 05:00N 36°46' E 013°07'  
Track history (hours):
 
Tides and Currents Weather Stations Pressure Air Temp Water Temp Dewpoint Dewpoint Depression Visibility Wind Speed Wind Dir Waves Ship Positions

Maratha

Last reported at 2017-Sep-13 05:05 UTC. Time now 2017-Sep-19 11:49 UTC.
Position N 32°52' E 034°58'.

Length 244 m; draft 12.8 m.

Type: Ship. MMSI: 240042000.

Date/timePositionNaut miles runAvg speedWind from/ knotsBaromVisibWave heightAir tempDewpointWater temp
2017-Sep-13 05:05N 32°52' E 034°58'0 5.4
2017-Sep-13 05:00N 32°52' E 034°57'0 0.6
2017-Sep-13 04:15N 32°52' E 034°57'0 1.8
2017-Sep-13 04:00N 32°53' E 034°56'3 5.1
2017-Sep-13 03:30N 32°53' E 034°54'4 8.5
2017-Sep-13 03:00N 32°55' E 034°49'5 9.2
2017-Sep-13 02:30N 32°55' E 034°43'5 9.1
2017-Sep-13 02:00N 32°56' E 034°38'5 9.0
2017-Sep-13 01:30N 32°57' E 034°33'4 9.0
2017-Sep-13 01:00N 32°58' E 034°27'4 8.8
2017-Sep-13 00:30N 32°58' E 034°22'4 9.0
2017-Sep-13 00:00N 32°59' E 034°17'5 9.2
2017-Sep-12 23:30N 33°00' E 034°11'5 9.3
2017-Sep-12 23:00N 33°01' E 034°06'5 9.3
2017-Sep-12 22:30N 33°02' E 034°01'5 9.3
2017-Sep-12 22:00N 33°02' E 033°55'5 9.2
2017-Sep-12 21:30N 33°03' E 033°50'5 9.1
2017-Sep-12 21:00N 33°04' E 033°44'5 9.2
2017-Sep-12 20:30N 33°05' E 033°39'5 9.2
2017-Sep-12 20:00N 33°05' E 033°33'5 9.2
2017-Sep-12 19:30N 33°06' E 033°28'5 9.1
2017-Sep-12 19:00N 33°07' E 033°23'5 9.0
2017-Sep-12 18:30N 33°08' E 033°17'5 9.5
2017-Sep-12 18:00N 33°08' E 033°12'510.1
2017-Sep-12 17:30N 33°09' E 033°06'611.2
2017-Sep-12 17:00N 33°10' E 032°59'611.1
2017-Sep-12 16:30N 33°12' E 032°53'5 8.3
2017-Sep-12 15:56N 33°16' E 032°52'511.8
2017-Sep-12 15:30N 33°21' E 032°55'612.0
2017-Sep-12 15:00N 33°27' E 032°58'612.0
2017-Sep-12 14:30N 33°32' E 033°01'612.0
2017-Sep-12 14:00N 33°37' E 033°03'611.8
2017-Sep-12 13:30N 33°43' E 033°06'611.7
2017-Sep-12 13:00N 33°48' E 033°09'611.7
2017-Sep-12 12:30N 33°53' E 033°12'611.6
2017-Sep-12 12:00N 33°58' E 033°16'611.5
2017-Sep-12 11:30N 34°04' E 033°18'611.0
2017-Sep-12 11:00N 34°08' E 033°22'611.2
2017-Sep-12 10:30N 34°12' E 033°27'611.3
2017-Sep-12 10:00N 34°16' E 033°32'611.5
2017-Sep-12 09:30N 34°20' E 033°37'611.2
2017-Sep-12 09:00N 34°23' E 033°43'611.5
2017-Sep-12 08:30N 34°27' E 033°48'611.5
2017-Sep-12 08:00N 34°31' E 033°53'611.5
2017-Sep-12 07:31N 34°35' E 033°58'611.5
2017-Sep-12 07:01N 34°39' E 034°04'611.4
2017-Sep-12 06:30N 34°42' E 034°09'611.2
2017-Sep-12 06:01N 34°46' E 034°14'611.0
2017-Sep-12 05:31N 34°50' E 034°19'611.0
2017-Sep-12 04:55N 34°54' E 034°25'510.7
2017-Sep-12 04:26N 34°57' E 034°30'1211.0
2017-Sep-12 03:20N 35°09' E 034°35'411.3
2017-Sep-12 03:00N 35°13' E 034°36'1611.6
2017-Sep-12 01:39N 35°27' E 034°42'2611.4
2017-Sep-11 23:22N 35°52' E 034°53'78 3.0
2017-Sep-10 21:10N 36°51' E 035°56'145 9.0
2017-Sep-10 05:05N 35°50' E 033°13'111.0
2017-Sep-10 05:00N 35°50' E 033°12'611.0
2017-Sep-10 04:30N 35°49' E 033°05'611.0
2017-Sep-10 03:59N 35°48' E 032°58'511.2
2017-Sep-10 03:30N 35°46' E 032°52'611.0
2017-Sep-10 03:00N 35°46' E 032°45'511.0
2017-Sep-10 02:30N 35°46' E 032°38'510.8
2017-Sep-10 02:00N 35°46' E 032°31'510.8
2017-Sep-10 01:30N 35°46' E 032°25'611.1
2017-Sep-10 01:00N 35°46' E 032°18'611.3
2017-Sep-10 00:30N 35°46' E 032°11'611.5
2017-Sep-10 00:00N 35°46' E 032°04'611.5
2017-Sep-09 23:30N 35°46' E 031°57'611.3
2017-Sep-09 23:00N 35°46' E 031°50'611.1
2017-Sep-09 22:30N 35°46' E 031°43'611.0
2017-Sep-09 22:00N 35°46' E 031°36'510.9
2017-Sep-09 21:30N 35°46' E 031°29'510.6
2017-Sep-09 21:00N 35°46' E 031°23'510.4
2017-Sep-09 20:30N 35°46' E 031°16'510.6
2017-Sep-09 20:00N 35°46' E 031°10'510.8
2017-Sep-09 19:30N 35°46' E 031°03'611.1
2017-Sep-09 19:00N 35°46' E 030°56'611.2
2017-Sep-09 18:30N 35°46' E 030°50'611.5
2017-Sep-09 18:00N 35°46' E 030°43'611.5
2017-Sep-09 17:30N 35°46' E 030°35'611.3
2017-Sep-09 17:00N 35°46' E 030°28'611.3
2017-Sep-09 16:29N 35°46' E 030°21'1911.8
2017-Sep-09 14:51N 35°46' E 029°57'22811.7
2017-Sep-08 19:28N 36°09' E 025°18'4012.5
2017-Sep-08 16:18N 36°15' E 024°29'612.5
2017-Sep-08 15:48N 36°16' E 024°21'512.4
2017-Sep-08 15:25N 36°16' E 024°16'512.5
2017-Sep-08 15:01N 36°17' E 024°09'612.4
2017-Sep-08 14:30N 36°18' E 024°02'612.3
2017-Sep-08 14:00N 36°19' E 023°54'612.4
2017-Sep-08 13:30N 36°20' E 023°46'612.2
2017-Sep-08 13:01N 36°21' E 023°39'712.4
2017-Sep-08 12:26N 36°22' E 023°30'912.7
2017-Sep-08 11:43N 36°23' E 023°19'313.1
2017-Sep-08 11:29N 36°23' E 023°15'613.0
2017-Sep-08 11:00N 36°24' E 023°08'  
2017-Sep-05 13:49N 36°26' E 015°11'711.2
2017-Sep-05 13:12N 36°26' E 015°03'211.4
2017-Sep-05 13:00N 36°26' E 014°60'612.1
2017-Sep-05 12:30N 36°26' E 014°52'612.2
2017-Sep-05 12:00N 36°26' E 014°45'611.9
2017-Sep-05 11:30N 36°26' E 014°38'611.9
2017-Sep-05 11:00N 36°27' E 014°30'611.9
2017-Sep-05 10:30N 36°29' E 014°23'611.6
2017-Sep-05 10:00N 36°31' E 014°16'611.7
2017-Sep-05 09:30N 36°32' E 014°09'611.7
2017-Sep-05 09:00N 36°34' E 014°02'611.7
2017-Sep-05 08:30N 36°35' E 013°55'611.7
2017-Sep-05 08:00N 36°37' E 013°48'611.7
2017-Sep-05 07:28N 36°38' E 013°41'611.6
2017-Sep-05 07:00N 36°40' E 013°34'611.5
2017-Sep-05 06:29N 36°41' E 013°27'611.3
2017-Sep-05 05:56N 36°43' E 013°19'511.1
2017-Sep-05 05:30N 36°44' E 013°14'510.9
2017-Sep-05 05:00N 36°46' E 013°07'  

Dump ship's entire track history